Buckfastleigh, United Kingdom
Current Conditions -  °F | °C
As of 5:50 PM on Thursday 30 Oct 2014 (Local Time) from EGTE Reporting Station
Haze Haze  
Wind Chill: 59°   Ceiling: 1300
Heat Index: 59°   Visibility: 3mi
Dew Point: 57°   Wind: 8mph
Humidity: 94%   Direction: 140°SE
Pressure: 30"   Gusts: NA
Location:  50.48°N, 3.78°W
Report Text: EGTE 301750Z 14007KT 5000 BR SCT008 BKN013 15/14 Q1016
Loading
Personal Weather Stations






























Interactive Weather Map
Tropical Storm Tracking
New forecast layout! Learn more

10-Day Weather Forecast

Advertisements
Track Severe Weather on mobile